Terminal Aerodrome Forecast
Issued by NWS La Crosse, WI

Home | Current Version | Previous Version | Text Only | Print | Product List | Glossary On
Versions: 1 2 3 4 5 6 7 8 9 10 11 12 13 14 15 16 17 18 19 20 21 22 23 24 25 26 27 28 29 30 31 32 33 34 35 36 37 38 39 40 41 42 43 44
381
FTUS43 KARX 031533 AAA
TAFLSE
TAF AMD
KLSE 031533Z 0316/0412 VRB04KT P6SM OVC035
     FM032000 VRB03KT P6SM SCT035 BKN100
     FM040700 17004KT P6SM -SN OVC025
     FM040900 17005KT 2SM -SN OVC015
     FM041100 16006KT 1SM -SN OVC008=

USA.gov is the U.S. government's official web portal to all federal, state and local government web resources and services.